createdAt,value
2019-01-26T00:01:01.065Z,95218.67
2019-01-26T00:03:32.532Z,95209.92
2019-01-26T00:06:18.178Z,95205.27
2019-01-26T00:11:32.623Z,95202.23
2019-01-26T00:14:09.450Z,95201.53
2019-01-26T00:19:21.259Z,95199.97
2019-01-26T00:22:06.941Z,95200.38
2019-01-26T00:24:45.245Z,95199.56
2019-01-26T00:27:19.218Z,95194.48
2019-01-26T00:32:31.331Z,95196.30
2019-01-26T00:37:41.462Z,95188.59
2019-01-26T00:40:17.772Z,95182.95
2019-01-26T00:42:52.319Z,95182.50
2019-01-26T00:45:26.059Z,95178.30
2019-01-26T00:48:01.762Z,95169.58
2019-01-26T00:50:44.568Z,95168.55
2019-01-26T00:56:04.252Z,95155.33
2019-01-26T00:58:38.898Z,95154.11
2019-01-26T01:01:12.801Z,95150.57
2019-01-26T01:03:47.201Z,95152.22
2019-01-26T01:06:25.871Z,95143.26
2019-01-26T01:08:59.903Z,95134.86
2019-01-26T01:14:10.787Z,95131.66
2019-01-26T01:16:45.479Z,95122.23
2019-01-26T01:19:20.738Z,95118.33
2019-01-26T01:21:55.395Z,95130.34
2019-01-26T01:24:29.171Z,95124.32
2019-01-26T01:27:05.423Z,95121.77
2019-01-26T01:37:45.960Z,95121.53
2019-01-26T01:40:23.655Z,95112.08
2019-01-26T01:43:02.280Z,95103.60
2019-01-26T01:45:36.303Z,95095.78
2019-01-26T01:48:19.213Z,95101.19
2019-01-26T01:51:12.188Z,95103.84
2019-01-26T01:56:35.215Z,95100.27
2019-01-26T01:59:10.880Z,95100.05
2019-01-26T02:04:26.799Z,95100.44
2019-01-26T02:07:18.720Z,95088.46
2019-01-26T02:09:59.288Z,95070.23
2019-01-26T02:12:36.196Z,95064.90
2019-01-26T02:17:50.898Z,95048.77
2019-01-26T02:23:09.725Z,95043.20
2019-01-26T02:25:47.290Z,95040.48
2019-01-26T02:28:24.038Z,95034.34
2019-01-26T02:31:09.401Z,95036.52
2019-01-26T02:33:51.764Z,95039.52
2019-01-26T02:36:32.616Z,95042.58
2019-01-26T02:41:43.540Z,95028.26
2019-01-26T02:44:32.987Z,95023.00
2019-01-26T02:49:44.094Z,95034.55
2019-01-26T02:52:18.385Z,95017.41
2019-01-26T02:55:00.717Z,95016.63
2019-01-26T02:57:35.006Z,95013.41
2019-01-26T03:00:10.673Z,95009.12
2019-01-26T03:02:43.716Z,95004.94
2019-01-26T03:05:16.862Z,95008.52
2019-01-26T03:07:51.825Z,95019.63
2019-01-26T03:14:26.904Z,95008.54
2019-01-26T03:17:05.921Z,95018.58
2019-01-26T03:19:48.923Z,95028.84
2019-01-26T03:25:00.024Z,94999.16
2019-01-26T03:30:27.556Z,94997.09
2019-01-26T03:33:00.785Z,95003.38
2019-01-26T03:35:33.246Z,94994.37
2019-01-26T03:38:02.692Z,95001.80
2019-01-26T03:43:18.991Z,95004.53
2019-01-26T03:45:48.339Z,95007.63
2019-01-26T03:48:21.091Z,94989.16
2019-01-26T03:50:54.129Z,94990.84
2019-01-26T03:56:04.860Z,94975.16
2019-01-26T04:01:27.404Z,94973.49
2019-01-26T04:03:56.846Z,94975.03
2019-01-26T04:06:27.829Z,94962.19
2019-01-26T04:08:57.168Z,94965.66
2019-01-26T04:11:55.047Z,94972.22
2019-01-26T04:14:29.631Z,94969.48
2019-01-26T04:16:59.276Z,94959.59
2019-01-26T04:22:08.199Z,94959.91
2019-01-26T04:24:38.786Z,94951.98
2019-01-26T04:27:07.838Z,94974.66
2019-01-26T04:32:38.724Z,94956.68
2019-01-26T04:35:07.988Z,94956.52
2019-01-26T04:37:49.943Z,94939.54
2019-01-26T04:42:59.263Z,94924.80
2019-01-26T04:45:28.795Z,94936.36
2019-01-26T04:47:57.856Z,94936.95
2019-01-26T04:50:30.021Z,94932.70
2019-01-26T04:52:59.776Z,94927.09
2019-01-26T04:58:13.662Z,94932.22
2019-01-26T05:03:49.300Z,94936.35
2019-01-26T05:08:54.950Z,94933.20
2019-01-26T05:11:49.335Z,94933.81
2019-01-26T05:14:23.509Z,94927.56
2019-01-26T05:16:52.523Z,94923.36
2019-01-26T05:22:01.129Z,94915.58
2019-01-26T05:27:05.882Z,94921.27
2019-01-26T05:29:50.750Z,94911.66
2019-01-26T05:32:19.877Z,94908.80
2019-01-26T05:34:50.523Z,94905.00
2019-01-26T05:37:19.600Z,94910.77
2019-01-26T05:39:48.677Z,94908.86
2019-01-26T05:44:56.710Z,94899.58
2019-01-26T05:47:36.420Z,94904.86
2019-01-26T05:50:05.472Z,94907.84
2019-01-26T05:52:34.650Z,94908.65
2019-01-26T05:55:04.456Z,94898.50
2019-01-26T05:57:47.512Z,94896.27
2019-01-26T06:00:59.039Z,94903.68
2019-01-26T06:03:49.379Z,94915.55
2019-01-26T06:08:57.295Z,94916.27
2019-01-26T06:11:26.411Z,94920.20
2019-01-26T06:13:55.792Z,94909.59
2019-01-26T06:16:25.251Z,94903.36
2019-01-26T06:18:54.295Z,94906.62
2019-01-26T06:21:52.702Z,94915.19
2019-01-26T06:27:02.951Z,94905.70
2019-01-26T06:29:32.022Z,94903.48
2019-01-26T06:32:01.290Z,94916.92
2019-01-26T06:34:49.233Z,94905.17
2019-01-26T06:37:41.931Z,94900.23
2019-01-26T06:40:13.131Z,94904.05
2019-01-26T06:45:39.591Z,94898.78
2019-01-26T06:48:26.272Z,94921.06
2019-01-26T06:50:55.314Z,94919.52
2019-01-26T06:53:51.154Z,94921.53
2019-01-26T06:56:20.241Z,94929.13
2019-01-26T06:58:50.197Z,94916.27
2019-01-26T07:01:22.330Z,94928.77
2019-01-26T07:03:51.370Z,94921.05
2019-01-26T07:06:29.505Z,94918.78
2019-01-26T07:08:58.598Z,94921.37
2019-01-26T07:11:31.734Z,94932.24
2019-01-26T07:14:01.158Z,94920.98
2019-01-26T07:16:30.215Z,94918.67
2019-01-26T07:21:45.849Z,94909.84
2019-01-26T07:24:14.899Z,94900.84
2019-01-26T07:26:48.880Z,94897.19
2019-01-26T07:32:30.686Z,94925.73
2019-01-26T07:34:59.978Z,94918.16
2019-01-26T07:37:41.799Z,94919.42
2019-01-26T07:40:21.321Z,94918.44
2019-01-26T07:42:53.705Z,94920.89
2019-01-26T07:45:42.164Z,94907.12
2019-01-26T07:48:29.071Z,94922.53
2019-01-26T07:50:58.139Z,94922.22
2019-01-26T07:53:34.740Z,94922.97
2019-01-26T07:56:04.082Z,94915.73
2019-01-26T07:58:46.448Z,94923.62
2019-01-26T08:01:19.579Z,94927.95
2019-01-26T08:03:53.294Z,94922.23
2019-01-26T08:06:37.864Z,94918.78
2019-01-26T08:09:12.029Z,94918.86
2019-01-26T08:11:53.955Z,94924.08
2019-01-26T08:14:29.886Z,94924.15
2019-01-26T08:17:05.644Z,94920.10
2019-01-26T08:19:40.797Z,94909.66
2019-01-26T08:22:15.027Z,94917.20
2019-01-26T08:24:51.289Z,94916.42
2019-01-26T08:27:25.690Z,94919.53
2019-01-26T08:30:05.419Z,94919.63
2019-01-26T08:32:39.413Z,94921.56
2019-01-26T08:35:12.997Z,94914.72
2019-01-26T08:40:29.067Z,94922.39
2019-01-26T08:45:39.646Z,94929.37
2019-01-26T08:51:51.840Z,94926.78
2019-01-26T08:54:25.795Z,94936.47
2019-01-26T08:57:03.568Z,94933.33
2019-01-26T08:59:40.290Z,94941.95
2019-01-26T09:04:50.833Z,94932.98
2019-01-26T09:07:29.427Z,94931.14
2019-01-26T09:10:06.508Z,94941.48
2019-01-26T09:12:40.173Z,94935.80
2019-01-26T09:15:23.829Z,94941.59
2019-01-26T09:18:08.026Z,94927.84
2019-01-26T09:20:44.170Z,94933.13
2019-01-26T09:23:21.170Z,94928.17
2019-01-26T09:25:56.256Z,94936.44
2019-01-26T09:28:29.363Z,94932.41
2019-01-26T09:33:45.463Z,94934.55
2019-01-26T09:36:18.964Z,94947.64
2019-01-26T09:38:59.954Z,94945.62
2019-01-26T09:41:34.706Z,94938.39
2019-01-26T09:44:09.534Z,94958.58
2019-01-26T09:46:44.375Z,94950.83
2019-01-26T09:49:18.824Z,94950.47
2019-01-26T09:51:54.573Z,94945.38
2019-01-26T09:54:27.836Z,94947.90
2019-01-26T09:57:02.172Z,94941.16
2019-01-26T10:02:16.863Z,94947.47
2019-01-26T10:04:50.636Z,94946.52
2019-01-26T10:07:24.795Z,94949.84
2019-01-26T10:09:59.367Z,94938.47
2019-01-26T10:12:37.483Z,94940.42
2019-01-26T10:15:24.438Z,94939.16
2019-01-26T10:18:00.189Z,94936.80
2019-01-26T10:20:40.150Z,94932.22
2019-01-26T10:23:17.911Z,94933.98
2019-01-26T10:25:58.010Z,94938.35
2019-01-26T10:28:34.475Z,94943.65
2019-01-26T10:33:43.992Z,94928.01
2019-01-26T10:38:54.497Z,94922.70
2019-01-26T10:41:36.058Z,94925.31
2019-01-26T10:44:11.267Z,94912.55
2019-01-26T10:46:44.915Z,94912.05
2019-01-26T10:49:25.853Z,94909.32
2019-01-26T10:52:00.000Z,94904.77
2019-01-26T10:54:34.234Z,94891.10
2019-01-26T10:57:08.490Z,94888.53
2019-01-26T10:59:41.747Z,94875.53
2019-01-26T11:04:50.120Z,94870.76
2019-01-26T11:12:46.255Z,94856.30
2019-01-26T11:15:28.996Z,94854.89
2019-01-26T11:17:59.886Z,94852.55
2019-01-26T11:20:29.802Z,94857.36
2019-01-26T11:23:00.107Z,94855.70
2019-01-26T11:25:29.132Z,94839.08
2019-01-26T11:30:33.851Z,94851.63
2019-01-26T11:33:03.433Z,94844.91
2019-01-26T11:35:32.488Z,94842.88
2019-01-26T11:40:37.434Z,94837.30
2019-01-26T11:43:06.568Z,94832.44
2019-01-26T11:45:39.789Z,94833.25
2019-01-26T11:48:21.702Z,94825.25
2019-01-26T11:51:08.326Z,94823.66
2019-01-26T11:59:09.473Z,94831.66
2019-01-26T12:01:38.869Z,94805.64
2019-01-26T12:04:19.610Z,94817.22
2019-01-26T12:06:50.411Z,94807.33
2019-01-26T12:09:21.403Z,94802.44
2019-01-26T12:11:50.888Z,94801.52
2019-01-26T12:16:55.962Z,94791.44
2019-01-26T12:19:25.504Z,94787.59
2019-01-26T12:21:54.582Z,94783.86
2019-01-26T12:24:23.634Z,94782.72
2019-01-26T12:26:54.611Z,94786.38
2019-01-26T12:29:23.642Z,94772.30
2019-01-26T12:31:58.998Z,94774.02
2019-01-26T12:34:30.145Z,94783.59
2019-01-26T12:37:00.038Z,94773.95
2019-01-26T12:39:32.839Z,94769.98
2019-01-26T12:42:01.878Z,94769.48
2019-01-26T12:44:31.229Z,94770.48
2019-01-26T12:47:00.279Z,94762.86
2019-01-26T12:49:29.727Z,94760.62
2019-01-26T12:51:59.445Z,94764.33
2019-01-26T12:54:28.628Z,94765.14
2019-01-26T12:56:58.908Z,94771.61
2019-01-26T12:59:28.972Z,94760.68
2019-01-26T13:01:59.104Z,94762.72
2019-01-26T13:04:29.133Z,94764.03
2019-01-26T13:07:03.264Z,94758.91
2019-01-26T13:12:16.659Z,94770.02
2019-01-26T13:14:58.528Z,94758.09
2019-01-26T13:17:34.555Z,94754.51
2019-01-26T13:20:17.957Z,94755.72
2019-01-26T13:25:39.795Z,94755.63
2019-01-26T13:28:14.395Z,94751.73
2019-01-26T13:30:43.927Z,94749.70
2019-01-26T13:33:17.538Z,94745.05
2019-01-26T13:35:56.541Z,94742.09
2019-01-26T13:38:26.013Z,94741.15
2019-01-26T13:40:56.163Z,94741.14
2019-01-26T13:43:25.757Z,94751.30
2019-01-26T13:45:55.103Z,94742.63
2019-01-26T13:48:24.170Z,94746.37
2019-01-26T13:50:53.835Z,94752.94
2019-01-26T13:53:22.899Z,94754.52
2019-01-26T13:55:52.019Z,94750.13
2019-01-26T13:58:21.967Z,94749.73
2019-01-26T14:00:52.047Z,94758.31
2019-01-26T14:03:34.491Z,94751.34
2019-01-26T14:06:04.183Z,94753.10
2019-01-26T14:11:28.617Z,94758.17
2019-01-26T14:14:09.164Z,94757.89
2019-01-26T14:17:00.178Z,94759.53
2019-01-26T14:22:08.700Z,94752.50
2019-01-26T14:24:52.187Z,94754.24
2019-01-26T14:27:24.517Z,94755.57
2019-01-26T14:29:54.610Z,94760.39
2019-01-26T14:32:37.722Z,94757.05
2019-01-26T14:35:07.128Z,94758.16
2019-01-26T14:37:38.191Z,94755.22
2019-01-26T14:40:09.249Z,94759.41
2019-01-26T14:42:43.605Z,94765.89
2019-01-26T14:45:15.768Z,94754.47
2019-01-26T14:47:44.954Z,94750.73
2019-01-26T14:52:49.678Z,94750.28
2019-01-26T14:55:25.280Z,94746.42
2019-01-26T14:57:55.679Z,94744.38
2019-01-26T15:03:06.164Z,94737.44
2019-01-26T15:05:35.231Z,94741.09
2019-01-26T15:08:05.435Z,94729.99
2019-01-26T15:10:44.003Z,94725.42
2019-01-26T15:13:26.474Z,94726.45
2019-01-26T15:16:02.670Z,94717.64
2019-01-26T15:18:32.439Z,94717.72
2019-01-26T15:21:03.508Z,94715.72
2019-01-26T15:23:32.563Z,94706.69
2019-01-26T15:26:01.946Z,94708.58
2019-01-26T15:31:07.176Z,94713.50
2019-01-26T15:33:36.687Z,94712.97
2019-01-26T15:36:09.163Z,94710.42
2019-01-26T15:38:36.098Z,94702.72
2019-01-26T15:41:06.276Z,94695.23
2019-01-26T15:43:45.465Z,94698.69
2019-01-26T15:46:14.556Z,94689.08
2019-01-26T15:48:43.575Z,94678.35
2019-01-26T15:51:14.553Z,94681.34
2019-01-26T15:56:23.867Z,94682.98
2019-01-26T15:58:56.812Z,94679.48
2019-01-26T16:01:26.484Z,94679.39
2019-01-26T16:06:43.752Z,94686.77
2019-01-26T16:09:14.159Z,94690.83
2019-01-26T16:21:14.218Z,94687.81
2019-01-26T16:23:43.705Z,94674.06
2019-01-26T16:26:12.896Z,94675.64
2019-01-26T16:28:41.938Z,94671.96
2019-01-26T16:31:11.173Z,94680.27
2019-01-26T16:33:40.240Z,94672.95
2019-01-26T16:36:24.071Z,94673.47
2019-01-26T16:43:30.890Z,94673.33
2019-01-26T16:46:00.006Z,94671.36
2019-01-26T16:48:29.079Z,94669.58
2019-01-26T16:50:59.320Z,94666.54
2019-01-26T16:53:29.403Z,94669.66
2019-01-26T16:56:02.326Z,94664.20
2019-01-26T16:58:33.358Z,94654.27
2019-01-26T17:01:05.437Z,94652.33
2019-01-26T17:03:35.235Z,94649.24
2019-01-26T17:06:04.250Z,94645.63
2019-01-26T17:08:34.096Z,94640.80
2019-01-26T17:11:04.062Z,94646.19
2019-01-26T17:13:33.103Z,94636.83
2019-01-26T17:16:04.814Z,94637.13
2019-01-26T17:18:34.082Z,94636.00
2019-01-26T17:21:03.971Z,94628.58
2019-01-26T17:23:32.994Z,94628.36
2019-01-26T17:26:08.501Z,94624.63
2019-01-26T17:28:38.525Z,94628.50
2019-01-26T17:33:43.035Z,94629.79
2019-01-26T17:36:33.915Z,94626.24
2019-01-26T17:39:05.170Z,94622.58
2019-01-26T17:41:40.157Z,94627.67
2019-01-26T17:44:10.453Z,94615.38
2019-01-26T17:46:39.702Z,94610.86
2019-01-26T17:49:12.095Z,94606.06
2019-01-26T17:51:41.306Z,94606.69
2019-01-26T17:54:18.329Z,94608.62
2019-01-26T17:56:47.686Z,94607.31
2019-01-26T17:59:17.610Z,94599.34
2019-01-26T18:01:56.820Z,94600.13
2019-01-26T18:04:25.906Z,94598.79
2019-01-26T18:07:04.592Z,94594.58
2019-01-26T18:09:41.825Z,94597.62
2019-01-26T18:12:19.904Z,94592.81
2019-01-26T18:17:26.719Z,94587.90
2019-01-26T18:19:55.774Z,94591.16
2019-01-26T18:22:26.570Z,94601.62
2019-01-26T18:24:55.768Z,94592.89
2019-01-26T18:27:25.618Z,94585.27
2019-01-26T18:29:54.668Z,94588.21
2019-01-26T18:32:25.520Z,94581.04
2019-01-26T18:35:01.943Z,94579.09
2019-01-26T18:37:31.431Z,94573.88
2019-01-26T18:40:10.893Z,94570.90
2019-01-26T18:42:51.610Z,94570.27
2019-01-26T18:45:23.710Z,94571.33
2019-01-26T18:47:52.766Z,94566.37
2019-01-26T18:50:37.347Z,94561.86
2019-01-26T18:53:18.520Z,94564.14
2019-01-26T18:55:50.830Z,94556.14
2019-01-26T18:58:22.664Z,94562.05
2019-01-26T19:01:19.002Z,94565.89
2019-01-26T19:06:42.125Z,94556.17
2019-01-26T19:09:18.976Z,94555.02
2019-01-26T19:11:48.770Z,94552.53
2019-01-26T19:14:18.115Z,94542.50
2019-01-26T19:16:47.151Z,94539.51
2019-01-26T19:19:17.148Z,94538.82
2019-01-26T19:21:49.599Z,94532.93
2019-01-26T19:24:18.764Z,94534.09
2019-01-26T19:26:47.998Z,94524.62
2019-01-26T19:32:02.710Z,94519.85
2019-01-26T19:34:34.542Z,94518.36
2019-01-26T19:37:09.232Z,94521.91
2019-01-26T19:39:33.579Z,94526.42
2019-01-26T19:42:25.441Z,94517.23
2019-01-26T19:44:54.839Z,94517.62
2019-01-26T19:50:00.032Z,94508.64
2019-01-26T19:52:39.574Z,94512.91
2019-01-26T19:55:16.273Z,94509.20
2019-01-26T19:57:47.543Z,94505.96
2019-01-26T20:00:18.559Z,94499.45
2019-01-26T20:02:48.642Z,94498.37
2019-01-26T20:05:40.699Z,94495.30
2019-01-26T20:08:13.568Z,94495.44
2019-01-26T20:10:55.077Z,94487.02
2019-01-26T20:13:37.001Z,94481.84
2019-01-26T20:16:38.056Z,94482.06
2019-01-26T20:19:15.622Z,94474.86
2019-01-26T20:21:47.001Z,94477.25
2019-01-26T20:24:20.101Z,94468.80
2019-01-26T20:26:50.847Z,94464.98
2019-01-26T20:29:40.788Z,94472.03
2019-01-26T20:32:13.830Z,94453.28
2019-01-26T20:34:53.227Z,94464.52
2019-01-26T20:40:19.991Z,94450.97
2019-01-26T20:42:49.037Z,94442.73
2019-01-26T20:45:26.346Z,94442.86
2019-01-26T20:51:32.927Z,94438.14
2019-01-26T20:56:40.741Z,94439.73
2019-01-26T20:59:34.136Z,94431.83
2019-01-26T21:02:03.523Z,94434.75
2019-01-26T21:04:36.175Z,94424.09
2019-01-26T21:07:05.204Z,94429.19
2019-01-26T21:09:41.003Z,94419.75
2019-01-26T21:12:43.006Z,94416.02
2019-01-26T21:15:43.494Z,94413.68
2019-01-26T21:18:24.004Z,94401.33
2019-01-26T21:20:54.306Z,94410.91
2019-01-26T21:23:25.157Z,94405.11
2019-01-26T21:26:13.417Z,94395.97
2019-01-26T21:28:49.847Z,94392.78
2019-01-26T21:31:20.164Z,94399.06
2019-01-26T21:36:27.819Z,94387.16
2019-01-26T21:39:06.405Z,94386.53
2019-01-26T21:41:49.187Z,94378.02
2019-01-26T21:44:18.261Z,94376.77
2019-01-26T21:46:47.677Z,94374.05
2019-01-26T21:49:18.695Z,94372.16
2019-01-26T21:51:47.784Z,94365.33
2019-01-26T21:56:55.138Z,94355.31
2019-01-26T21:59:24.580Z,94355.39
2019-01-26T22:04:29.791Z,94349.77
2019-01-26T22:06:59.870Z,94341.94
2019-01-26T22:09:29.930Z,94337.70
2019-01-26T22:12:01.155Z,94335.47
2019-01-26T22:14:30.750Z,94338.36
2019-01-26T22:17:02.006Z,94334.58
2019-01-26T22:19:31.247Z,94331.97
2019-01-26T22:22:00.653Z,94324.61
2019-01-26T22:24:29.987Z,94318.39
2019-01-26T22:26:59.131Z,94311.09
2019-01-26T22:29:31.384Z,94309.77
2019-01-26T22:31:57.443Z,94303.62
2019-01-26T22:34:26.770Z,94301.27
2019-01-26T22:36:56.354Z,94294.56
2019-01-26T22:39:31.315Z,94291.34
2019-01-26T22:44:47.490Z,94293.81
2019-01-26T22:47:16.999Z,94292.47
2019-01-26T22:49:50.881Z,94283.05
2019-01-26T22:52:20.332Z,94282.28
2019-01-26T22:55:03.680Z,94279.64
2019-01-26T22:57:32.718Z,94276.89
2019-01-26T23:02:41.467Z,94270.59
2019-01-26T23:05:24.604Z,94262.55
2019-01-26T23:07:57.907Z,94261.98
2019-01-26T23:10:36.285Z,94259.66
2019-01-26T23:27:52.464Z,94226.03
2019-01-26T23:30:40.819Z,94221.78
2019-01-26T23:35:47.566Z,94211.58
2019-01-26T23:38:16.927Z,94215.17
2019-01-26T23:40:45.967Z,94212.23
2019-01-26T23:43:18.329Z,94209.63
2019-01-26T23:45:56.732Z,94202.71
2019-01-26T23:48:26.239Z,94201.81
2019-01-26T23:51:03.782Z,94195.58
2019-01-26T23:53:32.832Z,94191.59
2019-01-26T23:56:14.881Z,94184.44
2019-01-26T23:58:54.977Z,94175.03
